KPNC/PNC METAR and TAF weather

Enter ICAO airport designator
Station Type Date Time Source
KPNC METAR 2019/12/11 11:53 UTC NOAA

KPNC 111153Z AUTO 18003KT 10SM CLR M02/M08 A3041 RMK AO2 SLP302 T10171083 10011 21017 51002


Station Type Date Time Source
KPNC Decoded METAR 2019/12/11 11:53 UTC NOAA

PONCA CITY MUNICIPAL AIRPORT, OK, United States (KPNC) 36-44N 97-06W 308M
Dec 11, 2019 - 06:53 AM EST / 2019.12.11 1153 UTC
Wind: from the S (180 degrees) at 3 MPH (3 KT):0
Visibility: 10 mile(s):0
Sky conditions: clear
Temperature: 28.9 F (-1.7 C)
Dew Point: 17.1 F (-8.3 C)
Relative Humidity: 60%
Pressure (altimeter): 30.41 in. Hg (1029 hPa)
Pressure tendency: 0.01 inches (0.2 hPa) higher than three hours ago
ob: KPNC 111153Z AUTO 18003KT 10SM CLR M02/M08 A3041 RMK AO2 SLP302 T10171083 10011 21017 51002
cycle: 12

Station Type Date Time Source
KPNC TAF 2019/12/11 12:03 UTC NOAA

TAF KPNC 111201Z 1112/1212 18003KT P6SM SKC
FM111900 19009G15KT P6SM SCT250

Example: see airport list